Euro Snow — VQGH9 — position and weather

sailwx.info

Track history (hours):
 
Tides and Currents Weather Stations Pressure Air Temp Water Temp Dewpoint Dewpoint Depression Visibility Wind Speed Wind Dir Waves Ship Positions

Euro Snow

Last reported at 2014-Oct-31 00:16 UTC. Time now 2014-Nov-01 08:25 UTC.
Position N 39°08' W 009°42'.

Length 133 m; draft 7.3 m.

Type: Cargo ship. MMSI: 235613000.

Date/timePositionNaut miles runAvg speedWind from/ knotsBaromVisibWave heightAir tempDewpointWater temp
2014-Oct-31 00:16N 39°08' W 009°42'1515.7
2014-Oct-30 23:17N 38°52' W 009°42'1216.0
2014-Oct-30 22:34N 38°41' W 009°41'1515.1
2014-Oct-30 21:33N 38°38' W 009°22'1313.2
2014-Oct-30 20:33N 38°43' W 009°07'0 0.1
2014-Oct-30 19:32N 38°43' W 009°07'0 0.0
2014-Oct-30 18:31N 38°43' W 009°07'0 0.0
2014-Oct-30 17:31N 38°43' W 009°07'0 0.0
2014-Oct-30 16:33N 38°43' W 009°07'0 0.0
2014-Oct-30 15:33N 38°43' W 009°07'0 0.0
2014-Oct-30 14:33N 38°43' W 009°07'0 0.0
2014-Oct-30 13:33N 38°43' W 009°07'0 0.0
2014-Oct-30 12:33N 38°43' W 009°07'0 0.0
2014-Oct-30 11:33N 38°43' W 009°07'0 0.0
2014-Oct-30 10:33N 38°43' W 009°07'0 0.0
2014-Oct-30 09:33N 38°43' W 009°07'0 0.0
2014-Oct-30 08:33N 38°43' W 009°07'0 0.2
2014-Oct-30 07:33N 38°43' W 009°07'1212.4
2014-Oct-30 06:33N 38°38' W 009°21'1713.9
2014-Oct-30 05:21N 38°40' W 009°43'  
2014-Oct-27 18:11N 46°04' W 007°59'915.3
2014-Oct-27 17:34N 46°12' W 007°52'1515.4
2014-Oct-27 16:33N 46°26' W 007°42'1615.9
2014-Oct-27 15:33N 46°40' W 007°31'1616.0
2014-Oct-27 14:34N 46°54' W 007°20'1515.4
2014-Oct-27 13:34N 47°08' W 007°09'5316.0
2014-Oct-27 10:15N 47°54' W 006°32'20114.6
2014-Oct-26 20:30N 50°01' W 002°35'10016.3
2014-Oct-26 14:20N 50°31' W 000°06'1516.2
2014-Oct-26 13:24N 50°35' E 000°17'1315.0
2014-Oct-26 12:34N 50°40' E 000°35'1414.3
2014-Oct-26 11:33N 50°48' E 000°54'1414.3
2014-Oct-26 10:34N 50°57' E 001°12'1716.5
2014-Oct-26 09:33N 51°07' E 001°32'1818.3
2014-Oct-26 08:34N 51°20' E 001°53'1717.4
2014-Oct-26 07:34N 51°33' E 002°11'4914.4
2014-Oct-26 04:11N 52°02' E 003°15'914.3
2014-Oct-26 03:33N 52°03' E 003°29'1413.9
2014-Oct-26 02:33N 52°03' E 003°52'8 7.9
2014-Oct-26 01:32N 51°58' E 004°02'0 0.0
2014-Oct-26 00:29N 51°58' E 004°02'0 0.0
2014-Oct-25 23:33N 51°58' E 004°02'0 0.0
2014-Oct-25 22:31N 51°58' E 004°02'0 0.0
2014-Oct-25 21:33N 51°58' E 004°02'0 0.0
2014-Oct-25 20:26N 51°58' E 004°02'0 0.0
2014-Oct-25 19:31N 51°58' E 004°02'0 0.0
2014-Oct-25 18:30N 51°58' E 004°02'0 0.0
2014-Oct-25 17:30N 51°58' E 004°02'0 0.0
2014-Oct-25 16:30N 51°58' E 004°02'0 0.0
2014-Oct-25 15:30N 51°58' E 004°02'0 0.0
2014-Oct-25 14:33N 51°58' E 004°02'0 0.1
2014-Oct-25 13:33N 51°58' E 004°02'7 6.9
2014-Oct-25 12:33N 52°01' E 003°52'1110.9
2014-Oct-25 11:33N 52°12' E 003°47'1212.2
2014-Oct-25 10:33N 52°24' E 003°49'1312.5
2014-Oct-25 09:31N 52°37' E 003°53'4013.4
2014-Oct-25 06:33N 53°11' E 004°26'1312.9
2014-Oct-25 05:33N 53°23' E 004°33'1312.4
2014-Oct-25 04:33N 53°35' E 004°39'1312.6
2014-Oct-25 03:33N 53°47' E 004°46'1312.7
2014-Oct-25 02:33N 53°59' E 004°51'1513.8
2014-Oct-25 01:30N 54°13' E 004°59'7214.0
2014-Oct-24 20:20N 55°14' E 006°08'1613.6
2014-Oct-24 19:09N 55°27' E 006°22'913.7
2014-Oct-24 18:30N 55°35' E 006°31'1413.5
2014-Oct-24 17:26N 55°47' E 006°46'1213.3
2014-Oct-24 16:33N 55°57' E 006°57'1313.2
2014-Oct-24 15:32N 56°08' E 007°09'13013.7
2014-Oct-24 06:04N 57°40' E 009°57'714.4
2014-Oct-24 05:33N 57°44' E 010°10'1414.2
2014-Oct-24 04:33N 57°49' E 010°34'1515.1
2014-Oct-24 03:33N 57°45' E 011°02'1616.1
2014-Oct-24 02:33N 57°38' E 011°29'1211.8
2014-Oct-24 01:33N 57°41' E 011°51'0 0.4
2014-Oct-24 00:32N 57°42' E 011°51'0 0.0
2014-Oct-23 23:32N 57°42' E 011°51'0 0.0
2014-Oct-23 22:33N 57°42' E 011°51'0 0.0
2014-Oct-23 21:32N 57°42' E 011°51'0 0.0
2014-Oct-23 20:32N 57°42' E 011°51'0 0.0
2014-Oct-23 19:32N 57°42' E 011°51'0 0.3
2014-Oct-23 18:33N 57°41' E 011°51'8 8.0
2014-Oct-23 17:33N 57°36' E 011°39'9 8.7
2014-Oct-23 16:33N 57°39' E 011°24'1414.3
2014-Oct-23 15:33N 57°44' E 010°58'1615.6
2014-Oct-23 14:33N 57°46' E 010°30'1716.7
2014-Oct-23 13:33N 57°40' E 010°01'1716.6
2014-Oct-23 12:33N 57°32' E 009°33'36213.9
2014-Oct-22 10:33N 54°55' W 000°14'1616.0
2014-Oct-22 09:33N 54°48' W 000°38'1615.9
2014-Oct-22 08:33N 54°41' W 001°03'6 5.5
2014-Oct-22 07:27N 54°36' W 001°09'4 0.5
2014-Oct-21 22:33N 54°40' W 001°06'2 2.3
2014-Oct-21 21:29N 54°42' W 001°03'3 3.3
2014-Oct-21 20:31N 54°44' W 000°59'2 1.6
2014-Oct-21 19:22N 54°45' W 001°02'1 1.6
2014-Oct-21 18:30N 54°45' W 001°05'8 8.5
2014-Oct-21 17:33N 54°41' W 000°53'9 8.7
2014-Oct-21 16:30N 54°41' W 000°37'3 3.0
2014-Oct-21 15:33N 54°42' W 000°41'3 3.4
2014-Oct-21 14:33N 54°43' W 000°47'3 3.3
2014-Oct-21 13:33N 54°45' W 000°52'3 2.9
2014-Oct-21 12:32N 54°46' W 000°57'3 2.8
2014-Oct-21 11:33N 54°46' W 001°02'2 2.4
2014-Oct-21 10:33N 54°46' W 001°06'7 7.2
2014-Oct-21 09:32N 54°39' W 001°01'10 9.9
2014-Oct-21 08:33N 54°35' W 000°46'1010.4
2014-Oct-21 07:34N 54°31' W 000°30'1110.9
2014-Oct-21 06:34N 54°24' W 000°16'1211.6
2014-Oct-21 05:34N 54°15' W 000°03'1211.5
2014-Oct-21 04:34N 54°07' E 000°10'1111.2
2014-Oct-21 03:34N 53°58' E 000°22'1110.8
2014-Oct-21 02:34N 53°50' E 000°34'  
Track history (hours):
 
Tides and Currents Weather Stations Pressure Air Temp Water Temp Dewpoint Dewpoint Depression Visibility Wind Speed Wind Dir Waves Ship Positions

Euro Snow

Last reported at 2014-Oct-31 00:16 UTC. Time now 2014-Nov-01 08:25 UTC.
Position N 39°08' W 009°42'.

Length 133 m; draft 7.3 m.

Type: Cargo ship. MMSI: 235613000.

Date/timePositionNaut miles runAvg speedWind from/ knotsBaromVisibWave heightAir tempDewpointWater temp
2014-Oct-31 00:16N 39°08' W 009°42'1515.7
2014-Oct-30 23:17N 38°52' W 009°42'1216.0
2014-Oct-30 22:34N 38°41' W 009°41'1515.1
2014-Oct-30 21:33N 38°38' W 009°22'1313.2
2014-Oct-30 20:33N 38°43' W 009°07'0 0.1
2014-Oct-30 19:32N 38°43' W 009°07'0 0.0
2014-Oct-30 18:31N 38°43' W 009°07'0 0.0
2014-Oct-30 17:31N 38°43' W 009°07'0 0.0
2014-Oct-30 16:33N 38°43' W 009°07'0 0.0
2014-Oct-30 15:33N 38°43' W 009°07'0 0.0
2014-Oct-30 14:33N 38°43' W 009°07'0 0.0
2014-Oct-30 13:33N 38°43' W 009°07'0 0.0
2014-Oct-30 12:33N 38°43' W 009°07'0 0.0
2014-Oct-30 11:33N 38°43' W 009°07'0 0.0
2014-Oct-30 10:33N 38°43' W 009°07'0 0.0
2014-Oct-30 09:33N 38°43' W 009°07'0 0.0
2014-Oct-30 08:33N 38°43' W 009°07'0 0.2
2014-Oct-30 07:33N 38°43' W 009°07'1212.4
2014-Oct-30 06:33N 38°38' W 009°21'1713.9
2014-Oct-30 05:21N 38°40' W 009°43'  
2014-Oct-27 18:11N 46°04' W 007°59'915.3
2014-Oct-27 17:34N 46°12' W 007°52'1515.4
2014-Oct-27 16:33N 46°26' W 007°42'1615.9
2014-Oct-27 15:33N 46°40' W 007°31'1616.0
2014-Oct-27 14:34N 46°54' W 007°20'1515.4
2014-Oct-27 13:34N 47°08' W 007°09'5316.0
2014-Oct-27 10:15N 47°54' W 006°32'20114.6
2014-Oct-26 20:30N 50°01' W 002°35'10016.3
2014-Oct-26 14:20N 50°31' W 000°06'1516.2
2014-Oct-26 13:24N 50°35' E 000°17'1315.0
2014-Oct-26 12:34N 50°40' E 000°35'1414.3
2014-Oct-26 11:33N 50°48' E 000°54'1414.3
2014-Oct-26 10:34N 50°57' E 001°12'1716.5
2014-Oct-26 09:33N 51°07' E 001°32'1818.3
2014-Oct-26 08:34N 51°20' E 001°53'1717.4
2014-Oct-26 07:34N 51°33' E 002°11'4914.4
2014-Oct-26 04:11N 52°02' E 003°15'914.3
2014-Oct-26 03:33N 52°03' E 003°29'1413.9
2014-Oct-26 02:33N 52°03' E 003°52'8 7.9
2014-Oct-26 01:32N 51°58' E 004°02'0 0.0
2014-Oct-26 00:29N 51°58' E 004°02'0 0.0
2014-Oct-25 23:33N 51°58' E 004°02'0 0.0
2014-Oct-25 22:31N 51°58' E 004°02'0 0.0
2014-Oct-25 21:33N 51°58' E 004°02'0 0.0
2014-Oct-25 20:26N 51°58' E 004°02'0 0.0
2014-Oct-25 19:31N 51°58' E 004°02'0 0.0
2014-Oct-25 18:30N 51°58' E 004°02'0 0.0
2014-Oct-25 17:30N 51°58' E 004°02'0 0.0
2014-Oct-25 16:30N 51°58' E 004°02'0 0.0
2014-Oct-25 15:30N 51°58' E 004°02'0 0.0
2014-Oct-25 14:33N 51°58' E 004°02'0 0.1
2014-Oct-25 13:33N 51°58' E 004°02'7 6.9
2014-Oct-25 12:33N 52°01' E 003°52'1110.9
2014-Oct-25 11:33N 52°12' E 003°47'1212.2
2014-Oct-25 10:33N 52°24' E 003°49'1312.5
2014-Oct-25 09:31N 52°37' E 003°53'4013.4
2014-Oct-25 06:33N 53°11' E 004°26'1312.9
2014-Oct-25 05:33N 53°23' E 004°33'1312.4
2014-Oct-25 04:33N 53°35' E 004°39'1312.6
2014-Oct-25 03:33N 53°47' E 004°46'1312.7
2014-Oct-25 02:33N 53°59' E 004°51'1513.8
2014-Oct-25 01:30N 54°13' E 004°59'7214.0
2014-Oct-24 20:20N 55°14' E 006°08'1613.6
2014-Oct-24 19:09N 55°27' E 006°22'913.7
2014-Oct-24 18:30N 55°35' E 006°31'1413.5
2014-Oct-24 17:26N 55°47' E 006°46'1213.3
2014-Oct-24 16:33N 55°57' E 006°57'1313.2
2014-Oct-24 15:32N 56°08' E 007°09'13013.7
2014-Oct-24 06:04N 57°40' E 009°57'714.4
2014-Oct-24 05:33N 57°44' E 010°10'1414.2
2014-Oct-24 04:33N 57°49' E 010°34'1515.1
2014-Oct-24 03:33N 57°45' E 011°02'1616.1
2014-Oct-24 02:33N 57°38' E 011°29'1211.8
2014-Oct-24 01:33N 57°41' E 011°51'0 0.4
2014-Oct-24 00:32N 57°42' E 011°51'0 0.0
2014-Oct-23 23:32N 57°42' E 011°51'0 0.0
2014-Oct-23 22:33N 57°42' E 011°51'0 0.0
2014-Oct-23 21:32N 57°42' E 011°51'0 0.0
2014-Oct-23 20:32N 57°42' E 011°51'0 0.0
2014-Oct-23 19:32N 57°42' E 011°51'0 0.3
2014-Oct-23 18:33N 57°41' E 011°51'8 8.0
2014-Oct-23 17:33N 57°36' E 011°39'9 8.7
2014-Oct-23 16:33N 57°39' E 011°24'1414.3
2014-Oct-23 15:33N 57°44' E 010°58'1615.6
2014-Oct-23 14:33N 57°46' E 010°30'1716.7
2014-Oct-23 13:33N 57°40' E 010°01'1716.6
2014-Oct-23 12:33N 57°32' E 009°33'36213.9
2014-Oct-22 10:33N 54°55' W 000°14'1616.0
2014-Oct-22 09:33N 54°48' W 000°38'1615.9
2014-Oct-22 08:33N 54°41' W 001°03'6 5.5
2014-Oct-22 07:27N 54°36' W 001°09'4 0.5
2014-Oct-21 22:33N 54°40' W 001°06'2 2.3
2014-Oct-21 21:29N 54°42' W 001°03'3 3.3
2014-Oct-21 20:31N 54°44' W 000°59'2 1.6
2014-Oct-21 19:22N 54°45' W 001°02'1 1.6
2014-Oct-21 18:30N 54°45' W 001°05'8 8.5
2014-Oct-21 17:33N 54°41' W 000°53'9 8.7
2014-Oct-21 16:30N 54°41' W 000°37'3 3.0
2014-Oct-21 15:33N 54°42' W 000°41'3 3.4
2014-Oct-21 14:33N 54°43' W 000°47'3 3.3
2014-Oct-21 13:33N 54°45' W 000°52'3 2.9
2014-Oct-21 12:32N 54°46' W 000°57'3 2.8
2014-Oct-21 11:33N 54°46' W 001°02'2 2.4
2014-Oct-21 10:33N 54°46' W 001°06'7 7.2
2014-Oct-21 09:32N 54°39' W 001°01'10 9.9
2014-Oct-21 08:33N 54°35' W 000°46'1010.4
2014-Oct-21 07:34N 54°31' W 000°30'1110.9
2014-Oct-21 06:34N 54°24' W 000°16'1211.6
2014-Oct-21 05:34N 54°15' W 000°03'1211.5
2014-Oct-21 04:34N 54°07' E 000°10'1111.2
2014-Oct-21 03:34N 53°58' E 000°22'1110.8
2014-Oct-21 02:34N 53°50' E 000°34'  

Dump ship's entire track history